Accueil
METAR-TAF:

METAR-TAF

Aéroports :

Base aérienne 125 Istres-Le Tubé

Istres, France

latitude: 43-31N, longitude: 004-56E, altitude: 23 m

Observation

Le bulletin a été fait il y a 18 minutes, à 23:30 UTC
Vent 3 kt de est
Température 6°C
Humidité 81%
Pression 1005 hPa
Visibilité 10 km ou plus
pas de nuages en-dessous de 1500 mètres et pas de cumulonimbus.

METAR: LFMI 232330Z AUTO 10003KT CAVOK 06/03 Q1005 NOSIG

Heure: 00:48 (23:48 UTC)

Prévision

Le bulletin a été fait il y a 3 heures et 48 minutes, à 20:00 UTC
Prévision valable du 23 à 21 UTC au 24 à 21 UTC
Vent 8 kt de ouest
Visibilité 10 km ou plus
pas de nuages en-dessous de 1500 mètres et pas de cumulonimbus.
Probabilité 30% :
Temporairement
du 24 à 11 UTC au 24 à 16 UTC
Nuages épars à une hauteur de 5000 ft, Cumulonimbus.
averses de pluie,

TAF: LFMI 232000Z 2321/2421 27008KT CAVOK TX14/2414Z TN05/2406Z PROB30 TEMPO 2411/2416 SHRA SCT050CB

Observations et prévisions météorologiques de plus de 4000 aéroports (messages METAR et TAF).

Les stations disponibles sont représentées par des disques jaunes et rouges sur la carte.

Passer la souris dessus pour voir le nom de la station.

Cliquer dessus pour voir les observations et prévisions météorologiques.

Pour changer de carte: cliquez sur les boutons verts avec une croix noire pour zoomer, sur le bouton vert avec un tiret pour effectuer un zoom arrière, ou sur les flèches vertes pour les cartes adjacentes.


METAR-TAF: